createdAt,value
2022-11-10T00:01:10.155Z,7.40
2022-11-10T00:04:16.336Z,7.55
2022-11-10T00:07:26.437Z,9.07
2022-11-10T00:10:33.472Z,6.63
2022-11-10T00:13:58.142Z,7.65
2022-11-10T00:17:04.812Z,7.55
2022-11-10T00:20:12.985Z,7.32
2022-11-10T00:23:19.268Z,7.70
2022-11-10T00:26:26.565Z,7.72
2022-11-10T00:32:39.061Z,7.38
2022-11-10T00:35:45.499Z,8.65
2022-11-10T00:38:52.026Z,7.50
2022-11-10T00:41:58.313Z,7.80
2022-11-10T00:45:05.030Z,8.35
2022-11-10T00:48:11.914Z,7.68
2022-11-10T00:51:25.491Z,9.68
2022-11-10T00:54:31.597Z,8.48
2022-11-10T00:57:37.958Z,8.82
2022-11-10T01:00:44.265Z,8.97
2022-11-10T01:03:51.505Z,9.40
2022-11-10T01:10:04.297Z,7.53
2022-11-10T01:13:10.816Z,8.98
2022-11-10T01:19:44.631Z,8.02
2022-11-10T01:22:51.297Z,9.52
2022-11-10T01:26:08.208Z,8.80
2022-11-10T01:29:14.469Z,8.00
2022-11-10T01:32:20.575Z,8.83
2022-11-10T01:35:26.739Z,9.02
2022-11-10T01:38:35.715Z,8.82
2022-11-10T01:41:41.909Z,9.15
2022-11-10T01:45:25.304Z,8.85
2022-11-10T01:48:44.184Z,8.93
2022-11-10T01:52:00.713Z,8.35
2022-11-10T01:55:07.255Z,8.15
2022-11-10T01:58:16.614Z,9.38
2022-11-10T02:01:23.703Z,9.77
2022-11-10T02:07:36.745Z,8.43
2022-11-10T02:10:42.954Z,8.63
2022-11-10T02:13:49.435Z,9.68
2022-11-10T02:16:56.280Z,9.63
2022-11-10T02:20:06.931Z,9.48
2022-11-10T02:23:34.451Z,10.00
2022-11-10T02:26:46.770Z,9.05
2022-11-10T02:29:53.183Z,8.32
2022-11-10T02:32:59.256Z,8.35
2022-11-10T02:36:05.569Z,9.68
2022-11-10T02:39:11.821Z,9.43
2022-11-10T02:42:18.100Z,8.45
2022-11-10T02:45:24.706Z,9.02
2022-11-10T02:48:31.367Z,8.50
2022-11-10T02:51:37.732Z,8.65
2022-11-10T02:54:44.164Z,8.85
2022-11-10T02:57:50.968Z,9.18
2022-11-10T03:00:57.287Z,9.25
2022-11-10T03:04:05.980Z,9.52
2022-11-10T03:07:12.198Z,8.98
2022-11-10T03:10:18.622Z,9.05
2022-11-10T03:13:32.253Z,9.65
2022-11-10T03:16:51.428Z,9.48
2022-11-10T03:19:57.926Z,9.60
2022-11-10T03:23:05.731Z,9.15
2022-11-10T03:26:11.916Z,8.95
2022-11-10T03:29:18.825Z,9.27
2022-11-10T03:32:25.250Z,10.32
2022-11-10T03:35:32.050Z,9.32
2022-11-10T03:38:38.391Z,10.32
2022-11-10T03:41:44.624Z,9.50
2022-11-10T03:44:50.872Z,10.48
2022-11-10T03:47:56.953Z,9.45
2022-11-10T03:51:03.662Z,10.00
2022-11-10T03:54:09.691Z,9.85
2022-11-10T03:57:16.222Z,10.10
2022-11-10T04:00:22.235Z,10.18
2022-11-10T04:03:28.673Z,9.80
2022-11-10T04:06:53.760Z,9.60
2022-11-10T04:10:00.141Z,9.25
2022-11-10T04:13:25.217Z,9.82
2022-11-10T04:16:31.616Z,10.10
2022-11-10T04:19:38.110Z,9.07
2022-11-10T04:23:02.467Z,10.45
2022-11-10T04:26:28.974Z,10.05
2022-11-10T04:29:34.952Z,9.75
2022-11-10T04:32:41.034Z,9.90
2022-11-10T04:35:47.297Z,9.82
2022-11-10T04:38:55.337Z,10.98
2022-11-10T04:42:03.059Z,10.02
2022-11-10T04:45:10.050Z,9.90
2022-11-10T04:48:16.285Z,10.57
2022-11-10T04:51:25.413Z,10.27
2022-11-10T04:54:31.368Z,9.52
2022-11-10T04:57:37.431Z,10.10
2022-11-10T05:00:43.583Z,9.33
2022-11-10T05:03:50.543Z,9.83
2022-11-10T05:06:57.228Z,8.98
2022-11-10T05:10:04.696Z,9.30
2022-11-10T05:13:11.540Z,10.38
2022-11-10T05:16:17.731Z,10.15
2022-11-10T05:19:23.610Z,9.90
2022-11-10T05:22:29.668Z,9.00
2022-11-10T05:25:38.198Z,10.02
2022-11-10T05:28:45.896Z,9.52
2022-11-10T05:31:52.129Z,8.77
2022-11-10T05:34:58.063Z,9.77
2022-11-10T05:38:05.194Z,8.48
2022-11-10T05:41:11.811Z,9.88
2022-11-10T05:44:18.022Z,8.98
2022-11-10T05:47:24.193Z,8.73
2022-11-10T05:50:30.353Z,9.57
2022-11-10T05:53:36.712Z,8.55
2022-11-10T05:56:42.754Z,8.52
2022-11-10T05:59:49.339Z,8.30
2022-11-10T06:03:02.971Z,9.30
2022-11-10T06:06:09.222Z,8.98
2022-11-10T06:09:15.405Z,9.30
2022-11-10T06:12:21.928Z,7.53
2022-11-10T06:15:28.067Z,8.27
2022-11-10T06:18:34.096Z,7.50
2022-11-10T06:21:40.142Z,8.30
2022-11-10T06:24:46.848Z,7.50
2022-11-10T06:27:52.763Z,8.38
2022-11-10T06:30:59.293Z,7.10
2022-11-10T06:37:11.721Z,7.25
2022-11-10T06:40:17.564Z,7.90
2022-11-10T06:43:24.169Z,8.20
2022-11-10T06:46:30.522Z,8.75
2022-11-10T06:49:36.522Z,7.78
2022-11-10T06:52:42.417Z,7.30
2022-11-10T06:55:48.590Z,7.80
2022-11-10T06:58:54.477Z,8.80
2022-11-10T07:02:00.555Z,7.78
2022-11-10T07:05:06.721Z,8.40
2022-11-10T07:08:16.481Z,8.25
2022-11-10T07:11:22.508Z,9.38
2022-11-10T07:14:28.507Z,8.50
2022-11-10T07:17:41.726Z,7.50
2022-11-10T07:20:47.718Z,8.05
2022-11-10T07:23:53.979Z,8.00
2022-11-10T07:27:00.664Z,7.35
2022-11-10T07:30:07.713Z,8.35
2022-11-10T07:36:20.726Z,7.55
2022-11-10T07:39:26.640Z,8.95
2022-11-10T07:42:32.673Z,8.07
2022-11-10T07:45:39.137Z,7.63
2022-11-10T07:48:45.285Z,8.10
2022-11-10T07:51:51.521Z,8.68
2022-11-10T07:54:58.031Z,7.78
2022-11-10T07:58:04.866Z,8.05
2022-11-10T08:01:11.032Z,8.00
2022-11-10T08:04:17.371Z,7.87
2022-11-10T08:07:23.490Z,8.13
2022-11-10T08:10:30.509Z,9.07
2022-11-10T08:13:36.458Z,8.50
2022-11-10T08:16:42.350Z,7.50
2022-11-10T08:19:48.174Z,8.30
2022-11-10T08:23:02.904Z,7.97
2022-11-10T08:26:09.210Z,8.00
2022-11-10T08:29:15.178Z,8.35
2022-11-10T08:32:21.354Z,8.40
2022-11-10T08:35:30.521Z,8.40
2022-11-10T08:38:36.701Z,8.48
2022-11-10T08:41:42.715Z,6.55
2022-11-10T08:44:48.849Z,7.87
2022-11-10T08:48:02.779Z,8.55
2022-11-10T08:51:09.228Z,9.30
2022-11-10T08:54:15.233Z,8.07
2022-11-10T08:57:21.214Z,9.52
2022-11-10T09:00:28.805Z,9.37
2022-11-10T09:03:35.285Z,8.40
2022-11-10T09:06:42.926Z,9.20
2022-11-10T09:10:05.914Z,9.40
2022-11-10T09:13:15.129Z,8.93
2022-11-10T09:16:21.503Z,10.10
2022-11-10T09:19:27.429Z,9.30
2022-11-10T09:22:36.014Z,9.45
2022-11-10T09:25:43.648Z,10.70
2022-11-10T09:28:50.543Z,9.75
2022-11-10T09:31:56.599Z,8.55
2022-11-10T09:35:03.890Z,9.63
2022-11-10T09:38:09.954Z,9.75
2022-11-10T09:41:16.204Z,11.05
2022-11-10T09:44:29.632Z,11.18
2022-11-10T09:48:00.516Z,9.82
2022-11-10T09:51:17.116Z,9.90
2022-11-10T09:54:33.580Z,10.80
2022-11-10T09:57:47.712Z,10.20
2022-11-10T10:01:05.471Z,10.35
2022-11-10T10:04:20.431Z,9.87
2022-11-10T10:07:48.644Z,10.52
2022-11-10T10:10:57.624Z,10.43
2022-11-10T10:14:39.395Z,9.70
2022-11-10T10:18:25.737Z,8.05
2022-11-10T10:21:51.396Z,10.50
2022-11-10T10:25:02.147Z,10.40
2022-11-10T10:28:20.032Z,10.05
2022-11-10T10:31:32.690Z,10.88
2022-11-10T10:34:39.594Z,10.25
2022-11-10T10:37:51.185Z,12.65
2022-11-10T10:41:03.490Z,10.88
2022-11-10T10:44:19.113Z,9.70
2022-11-10T10:47:37.478Z,9.75
2022-11-10T10:50:43.631Z,11.15
2022-11-10T10:53:49.878Z,9.18
2022-11-10T10:57:05.143Z,9.93
2022-11-10T11:00:22.030Z,10.20
2022-11-10T11:03:50.109Z,9.88
2022-11-10T11:07:02.769Z,9.20
2022-11-10T11:10:24.325Z,9.60
2022-11-10T11:13:30.397Z,10.15
2022-11-10T11:16:56.654Z,10.70
2022-11-10T11:20:03.181Z,11.55
2022-11-10T11:23:15.229Z,10.88
2022-11-10T11:26:59.517Z,10.75
2022-11-10T11:30:10.668Z,10.25
2022-11-10T11:33:19.737Z,9.85
2022-11-10T11:36:39.121Z,11.55
2022-11-10T11:39:50.977Z,10.82
2022-11-10T11:43:08.310Z,9.82
2022-11-10T11:46:43.655Z,10.38
2022-11-10T11:50:35.631Z,10.15
2022-11-10T11:54:02.794Z,9.27
2022-11-10T11:57:46.630Z,9.68
2022-11-10T12:00:59.921Z,11.07
2022-11-10T12:04:30.986Z,9.65
2022-11-10T12:08:01.915Z,11.68
2022-11-10T12:11:38.878Z,9.90
2022-11-10T12:15:16.833Z,11.00
2022-11-10T12:18:36.333Z,9.73
2022-11-10T12:21:49.139Z,10.38
2022-11-10T12:25:01.660Z,10.32
2022-11-10T12:28:17.336Z,11.70
2022-11-10T12:31:26.678Z,10.90
2022-11-10T12:34:56.882Z,10.77
2022-11-10T12:38:21.738Z,10.00
2022-11-10T12:41:35.923Z,9.40
2022-11-10T12:44:54.348Z,10.23
2022-11-10T12:48:02.726Z,9.82
2022-11-10T12:51:25.787Z,10.55
2022-11-10T12:54:31.753Z,10.45
2022-11-10T12:57:38.418Z,9.48
2022-11-10T13:00:56.619Z,9.40
2022-11-10T13:04:03.138Z,11.80
2022-11-10T13:07:13.656Z,10.18
2022-11-10T13:10:26.431Z,10.90
2022-11-10T13:13:52.234Z,10.65
2022-11-10T13:17:00.434Z,11.05
2022-11-10T13:20:44.632Z,11.77
2022-11-10T13:23:50.425Z,10.15
2022-11-10T13:26:57.473Z,9.50
2022-11-10T13:33:35.128Z,11.13
2022-11-10T13:36:43.686Z,10.98
2022-11-10T13:39:50.513Z,12.73
2022-11-10T13:42:59.556Z,11.65
2022-11-10T13:46:05.831Z,12.38
2022-11-10T13:49:33.514Z,10.95
2022-11-10T13:52:56.701Z,12.02
2022-11-10T13:56:08.507Z,11.07
2022-11-10T13:59:21.089Z,11.13
2022-11-10T14:02:39.305Z,8.93
2022-11-10T14:06:07.891Z,10.65
2022-11-10T14:09:26.966Z,10.82
2022-11-10T14:12:55.761Z,11.00
2022-11-10T14:16:02.387Z,12.98
2022-11-10T14:19:14.396Z,11.77
2022-11-10T14:22:37.981Z,11.90
2022-11-10T14:25:45.069Z,11.57
2022-11-10T14:28:51.482Z,11.88
2022-11-10T14:32:12.268Z,12.02
2022-11-10T14:35:28.108Z,12.90
2022-11-10T14:38:35.872Z,12.55
2022-11-10T14:41:49.403Z,12.00
2022-11-10T14:45:13.806Z,13.38
2022-11-10T14:48:25.800Z,12.85
2022-11-10T14:51:34.855Z,11.57
2022-11-10T14:54:46.067Z,11.75
2022-11-10T14:58:08.208Z,11.98
2022-11-10T15:01:27.722Z,11.15
2022-11-10T15:04:36.558Z,12.80
2022-11-10T15:07:44.987Z,13.80
2022-11-10T15:10:56.460Z,14.25
2022-11-10T15:14:02.750Z,12.77
2022-11-10T15:17:11.249Z,14.10
2022-11-10T15:20:38.656Z,12.15
2022-11-10T15:23:52.457Z,13.40
2022-11-10T15:26:58.571Z,12.50
2022-11-10T15:30:23.051Z,12.40
2022-11-10T15:33:34.267Z,12.88
2022-11-10T15:36:40.430Z,13.07
2022-11-10T15:39:46.548Z,16.47
2022-11-10T15:43:28.033Z,13.18
2022-11-10T15:46:34.536Z,13.18
2022-11-10T15:49:41.212Z,12.85
2022-11-10T15:52:47.310Z,14.10
2022-11-10T15:55:53.428Z,12.48
2022-11-10T15:59:02.404Z,14.20
2022-11-10T16:02:20.264Z,12.98
2022-11-10T16:08:32.335Z,13.27
2022-11-10T16:11:40.637Z,12.85
2022-11-10T16:14:49.812Z,14.52
2022-11-10T16:17:55.951Z,13.43
2022-11-10T16:21:02.075Z,15.13
2022-11-10T16:24:08.190Z,13.27
2022-11-10T16:27:14.959Z,13.20
2022-11-10T16:30:21.174Z,13.00
2022-11-10T16:33:29.140Z,14.07
2022-11-10T16:36:36.597Z,12.40
2022-11-10T16:39:42.827Z,14.25
2022-11-10T16:42:51.472Z,13.07
2022-11-10T16:46:00.384Z,13.55
2022-11-10T16:49:15.193Z,14.05
2022-11-10T16:52:22.717Z,10.50
2022-11-10T16:55:29.527Z,14.60
2022-11-10T16:58:35.951Z,12.63
2022-11-10T17:01:44.260Z,12.45
2022-11-10T17:04:50.561Z,13.18
2022-11-10T17:07:58.857Z,13.55
2022-11-10T17:11:05.238Z,12.77
2022-11-10T17:14:13.067Z,13.40
2022-11-10T17:17:20.061Z,13.25
2022-11-10T17:20:34.511Z,14.10
2022-11-10T17:23:40.971Z,13.23
2022-11-10T17:26:47.800Z,12.90
2022-11-10T17:33:05.099Z,12.45
2022-11-10T17:36:15.827Z,13.45
2022-11-10T17:39:22.695Z,13.65
2022-11-10T17:42:29.014Z,11.95
2022-11-10T17:45:35.405Z,13.13
2022-11-10T17:48:42.074Z,12.18
2022-11-10T17:51:48.206Z,11.10
2022-11-10T17:54:54.663Z,13.40
2022-11-10T17:58:01.216Z,11.65
2022-11-10T18:01:19.096Z,12.40
2022-11-10T18:04:26.476Z,11.70
2022-11-10T18:07:33.220Z,10.85
2022-11-10T18:10:46.446Z,11.45
2022-11-10T18:13:52.571Z,11.73
2022-11-10T18:16:58.619Z,9.32
2022-11-10T18:20:05.643Z,11.52
2022-11-10T18:26:18.684Z,9.60
2022-11-10T18:29:24.783Z,10.70
2022-11-10T18:32:30.807Z,11.48
2022-11-10T18:35:39.301Z,10.32
2022-11-10T18:38:45.451Z,11.73
2022-11-10T18:41:52.654Z,11.65
2022-11-10T18:44:58.819Z,11.80
2022-11-10T18:48:05.384Z,11.73
2022-11-10T18:51:11.710Z,10.27
2022-11-10T18:54:18.111Z,11.85
2022-11-10T18:57:24.209Z,10.83
2022-11-10T19:00:30.548Z,12.50
2022-11-10T19:03:37.089Z,11.57
2022-11-10T19:06:43.126Z,12.30
2022-11-10T19:09:49.421Z,12.35
2022-11-10T19:12:56.020Z,12.50
2022-11-10T19:16:09.944Z,12.23
2022-11-10T19:19:16.384Z,11.65
2022-11-10T19:22:22.754Z,12.25
2022-11-10T19:25:29.780Z,12.25
2022-11-10T19:28:37.269Z,12.55
2022-11-10T19:31:44.196Z,12.23
2022-11-10T19:34:50.577Z,12.57
2022-11-10T19:37:56.862Z,12.70
2022-11-10T19:41:06.222Z,13.35
2022-11-10T19:44:12.611Z,13.88
2022-11-10T19:47:18.559Z,15.43
2022-11-10T19:50:24.533Z,14.85
2022-11-10T19:53:31.725Z,12.63
2022-11-10T19:56:37.707Z,14.77
2022-11-10T19:59:43.921Z,13.10
2022-11-10T20:02:52.068Z,13.50
2022-11-10T20:06:00.832Z,12.95
2022-11-10T20:09:06.776Z,14.88
2022-11-10T20:12:13.193Z,14.65
2022-11-10T20:15:19.475Z,13.77
2022-11-10T20:18:25.872Z,15.27
2022-11-10T20:21:32.046Z,15.63
2022-11-10T20:24:38.524Z,14.45
2022-11-10T20:27:44.884Z,15.07
2022-11-10T20:30:51.239Z,13.90
2022-11-10T20:33:57.895Z,16.15
2022-11-10T20:37:04.304Z,14.68
2022-11-10T20:40:42.248Z,14.65
2022-11-10T20:43:40.132Z,15.80
2022-11-10T20:46:54.484Z,14.25
2022-11-10T20:50:01.076Z,14.85
2022-11-10T20:53:07.418Z,13.00
2022-11-10T20:56:15.657Z,14.45
2022-11-10T20:59:22.022Z,14.30
2022-11-10T21:02:28.130Z,14.07
2022-11-10T21:05:34.749Z,14.48
2022-11-10T21:08:41.090Z,13.82
2022-11-10T21:12:06.126Z,13.33
2022-11-10T21:15:12.444Z,13.85
2022-11-10T21:18:19.586Z,14.77
2022-11-10T21:24:34.514Z,12.13
2022-11-10T21:27:40.973Z,13.63
2022-11-10T21:30:47.464Z,12.80
2022-11-10T21:33:57.909Z,14.63
2022-11-10T21:37:04.009Z,12.52
2022-11-10T21:40:11.436Z,14.87
2022-11-10T21:43:17.527Z,12.32
2022-11-10T21:46:24.688Z,14.07
2022-11-10T21:49:31.174Z,13.23
2022-11-10T21:52:37.516Z,13.27
2022-11-10T21:55:43.971Z,13.15
2022-11-10T21:58:50.087Z,13.85
2022-11-10T22:01:56.554Z,13.00
2022-11-10T22:05:03.352Z,13.25
2022-11-10T22:08:10.690Z,12.98
2022-11-10T22:11:38.212Z,14.57
2022-11-10T22:15:03.106Z,13.57
2022-11-10T22:18:37.443Z,13.27
2022-11-10T22:21:44.446Z,13.30
2022-11-10T22:24:50.868Z,14.20
2022-11-10T22:27:57.638Z,13.82
2022-11-10T22:31:04.777Z,12.77
2022-11-10T22:34:11.241Z,13.52
2022-11-10T22:37:17.707Z,12.38
2022-11-10T22:40:42.934Z,13.80
2022-11-10T22:44:03.900Z,11.80
2022-11-10T22:47:09.898Z,14.45
2022-11-10T22:50:16.544Z,12.48
2022-11-10T22:53:23.919Z,13.48
2022-11-10T22:56:32.185Z,13.70
2022-11-10T22:59:38.600Z,14.35
2022-11-10T23:02:45.159Z,13.82
2022-11-10T23:05:56.314Z,14.18
2022-11-10T23:09:03.389Z,13.10
2022-11-10T23:12:09.485Z,13.13
2022-11-10T23:15:15.870Z,13.05
2022-11-10T23:18:22.741Z,14.48
2022-11-10T23:21:30.434Z,13.48
2022-11-10T23:24:36.803Z,13.32
2022-11-10T23:27:43.473Z,13.35
2022-11-10T23:30:50.353Z,14.57
2022-11-10T23:33:57.867Z,13.63
2022-11-10T23:37:04.095Z,14.13
2022-11-10T23:40:10.772Z,14.52
2022-11-10T23:43:17.247Z,14.32
2022-11-10T23:46:23.740Z,14.00
2022-11-10T23:49:30.258Z,13.45
2022-11-10T23:52:36.362Z,15.00
2022-11-10T23:55:43.120Z,13.93
2022-11-10T23:58:49.514Z,14.05
